Terminal Aerodrome Forecast
Issued by NWS Central Illinois

Home | Current Version | Previous Version | Text Only | Print | Product List | Glossary On
Versions: 1 2 3 4 5 6 7 8 9 10 11 12 13
728
FTUS43 KILX 271138
TAFSPI
TAF
KSPI 271138Z 2712/2812 15005KT P6SM SCT035 BKN070
     FM271500 16009KT P6SM SCT035 BKN070
     FM272300 15011KT P6SM BKN045
     FM280400 16013G19KT 5SM -SHRA BR VCTS SCT012 OVC025CB=

USA.gov is the U.S. government's official web portal to all federal, state and local government web resources and services.